createdAt,value
2022-08-11T00:01:15.122Z,22.40
2022-08-11T00:03:47.483Z,23.00
2022-08-11T00:06:22.990Z,23.40
2022-08-11T00:08:51.200Z,23.30
2022-08-11T00:11:19.605Z,23.30
2022-08-11T00:13:49.169Z,22.40
2022-08-11T00:16:22.632Z,22.60
2022-08-11T00:18:52.279Z,21.60
2022-08-11T00:21:54.609Z,22.30
2022-08-11T00:24:12.585Z,21.10
2022-08-11T00:26:39.313Z,21.10
2022-08-11T00:29:12.733Z,22.20
2022-08-11T00:31:46.527Z,21.30
2022-08-11T00:34:16.091Z,21.30
2022-08-11T00:36:56.124Z,21.10
2022-08-11T00:39:28.668Z,21.80
2022-08-11T00:42:15.323Z,21.10
2022-08-11T00:44:57.071Z,21.30
2022-08-11T00:47:35.494Z,23.40
2022-08-11T00:50:38.882Z,22.50
2022-08-11T00:53:26.238Z,21.80
2022-08-11T00:56:14.293Z,21.70
2022-08-11T00:59:05.817Z,23.10
2022-08-11T01:02:30.762Z,22.00
2022-08-11T01:05:16.066Z,22.00
2022-08-11T01:08:09.024Z,23.20
2022-08-11T01:10:47.795Z,22.00
2022-08-11T01:13:41.306Z,21.70
2022-08-11T01:19:18.801Z,23.20
2022-08-11T01:22:06.861Z,20.90
2022-08-11T01:24:53.275Z,21.00
2022-08-11T01:28:14.789Z,20.60
2022-08-11T01:31:14.890Z,20.70
2022-08-11T01:34:20.878Z,20.50
2022-08-11T01:36:48.248Z,21.70
2022-08-11T01:39:56.254Z,20.30
2022-08-11T01:42:59.741Z,20.80
2022-08-11T01:45:49.730Z,22.70
2022-08-11T01:48:40.900Z,21.70
2022-08-11T01:51:59.908Z,21.50
2022-08-11T01:54:40.850Z,23.00
2022-08-11T01:57:29.407Z,21.50
2022-08-11T02:00:19.252Z,20.50
2022-08-11T02:03:12.480Z,21.40
2022-08-11T02:06:30.628Z,21.50
2022-08-11T02:09:17.984Z,20.80
2022-08-11T02:11:49.354Z,20.20
2022-08-11T02:14:29.334Z,21.10
2022-08-11T02:17:37.750Z,21.20
2022-08-11T02:20:55.946Z,20.70
2022-08-11T02:24:04.912Z,20.10
2022-08-11T02:27:00.851Z,20.20
2022-08-11T02:29:51.075Z,22.10
2022-08-11T02:32:45.418Z,20.30
2022-08-11T02:35:27.752Z,20.20
2022-08-11T02:38:18.984Z,20.00
2022-08-11T02:41:30.473Z,21.30
2022-08-11T02:44:06.049Z,20.80
2022-08-11T02:46:53.961Z,21.20
2022-08-11T02:50:03.458Z,20.50
2022-08-11T02:53:29.510Z,20.10
2022-08-11T02:56:16.241Z,21.10
2022-08-11T02:59:12.989Z,20.30
2022-08-11T03:01:49.235Z,21.00
2022-08-11T03:04:25.137Z,20.00
2022-08-11T03:07:29.852Z,19.80
2022-08-11T03:10:11.320Z,21.40
2022-08-11T03:13:23.045Z,20.30
2022-08-11T03:16:21.117Z,22.20
2022-08-11T03:21:23.737Z,21.00
2022-08-11T03:24:20.817Z,21.90
2022-08-11T03:26:53.838Z,20.70
2022-08-11T03:29:31.154Z,21.80
2022-08-11T03:32:19.355Z,20.50
2022-08-11T03:34:50.541Z,20.50
2022-08-11T03:37:48.098Z,20.30
2022-08-11T03:41:02.070Z,19.30
2022-08-11T03:43:58.054Z,19.60
2022-08-11T03:46:46.953Z,19.40
2022-08-11T03:49:39.207Z,20.40
2022-08-11T03:52:16.077Z,20.20
2022-08-11T03:55:08.784Z,20.20
2022-08-11T03:58:06.678Z,20.20
2022-08-11T04:00:56.954Z,21.40
2022-08-11T04:03:40.469Z,19.10
2022-08-11T04:06:17.772Z,19.40
2022-08-11T04:09:23.741Z,21.50
2022-08-11T04:12:45.712Z,19.00
2022-08-11T04:15:55.932Z,19.00
2022-08-11T04:18:28.837Z,18.90
2022-08-11T04:21:22.524Z,21.60
2022-08-11T04:24:38.308Z,18.90
2022-08-11T04:27:36.752Z,18.90
2022-08-11T04:30:28.306Z,18.90
2022-08-11T04:33:09.383Z,19.40
2022-08-11T04:36:02.232Z,21.40
2022-08-11T04:38:53.354Z,20.20
2022-08-11T04:42:01.304Z,19.10
2022-08-11T04:45:11.879Z,19.80
2022-08-11T04:48:39.969Z,20.80
2022-08-11T04:52:04.194Z,20.40
2022-08-11T04:55:19.639Z,20.40
2022-08-11T04:58:31.336Z,19.40
2022-08-11T05:01:41.473Z,20.40
2022-08-11T05:04:30.938Z,20.40
2022-08-11T05:07:39.493Z,20.60
2022-08-11T05:10:20.953Z,21.30
2022-08-11T05:12:50.983Z,20.60
2022-08-11T05:15:44.673Z,19.60
2022-08-11T05:18:38.763Z,21.10
2022-08-11T05:21:28.460Z,20.80
2022-08-11T05:24:45.747Z,21.20
2022-08-11T05:27:34.238Z,21.20
2022-08-11T05:30:34.375Z,20.20
2022-08-11T05:33:40.502Z,21.20
2022-08-11T05:36:42.044Z,20.20
2022-08-11T05:39:36.668Z,20.70
2022-08-11T05:42:29.777Z,21.20
2022-08-11T05:45:24.900Z,21.60
2022-08-11T05:48:11.025Z,21.50
2022-08-11T05:50:57.838Z,20.40
2022-08-11T05:53:46.198Z,20.90
2022-08-11T05:56:18.778Z,23.00
2022-08-11T05:58:51.681Z,23.10
2022-08-11T06:01:27.616Z,22.30
2022-08-11T06:04:18.430Z,20.70
2022-08-11T06:06:58.580Z,20.80
2022-08-11T06:09:28.945Z,21.00
2022-08-11T06:11:59.944Z,22.30
2022-08-11T06:14:28.377Z,22.50
2022-08-11T06:17:00.285Z,21.90
2022-08-11T06:20:07.197Z,21.60
2022-08-11T06:22:34.824Z,21.80
2022-08-11T06:25:04.742Z,24.00
2022-08-11T06:27:34.388Z,24.00
2022-08-11T06:30:02.793Z,24.10
2022-08-11T06:32:33.948Z,23.10
2022-08-11T06:35:18.606Z,24.30
2022-08-11T06:37:49.288Z,22.30
2022-08-11T06:41:12.642Z,24.00
2022-08-11T06:44:04.644Z,23.90
2022-08-11T06:46:38.739Z,23.90
2022-08-11T06:49:30.347Z,24.20
2022-08-11T06:52:04.907Z,24.60
2022-08-11T06:54:41.306Z,24.20
2022-08-11T06:57:31.695Z,24.10
2022-08-11T07:00:18.912Z,23.70
2022-08-11T07:03:09.191Z,25.50
2022-08-11T07:05:53.888Z,25.10
2022-08-11T07:09:02.205Z,26.80
2022-08-11T07:12:18.631Z,25.30
2022-08-11T07:16:11.262Z,26.30
2022-08-11T07:18:46.431Z,25.00
2022-08-11T07:22:02.782Z,25.90
2022-08-11T07:25:03.548Z,25.70
2022-08-11T07:28:00.405Z,26.20
2022-08-11T07:30:27.544Z,25.20
2022-08-11T07:32:59.489Z,27.80
2022-08-11T07:35:42.551Z,26.00
2022-08-11T07:38:22.721Z,25.50
2022-08-11T07:40:52.427Z,25.90
2022-08-11T07:48:53.478Z,27.00
2022-08-11T07:51:40.093Z,26.50
2022-08-11T07:54:17.228Z,25.80
2022-08-11T07:56:54.085Z,28.00
2022-08-11T08:00:03.381Z,26.50
2022-08-11T08:05:44.511Z,26.70
2022-08-11T08:08:30.126Z,26.80
2022-08-11T08:11:16.202Z,26.90
2022-08-11T08:14:02.163Z,28.60
2022-08-11T08:16:49.783Z,29.80
2022-08-11T08:19:19.044Z,28.50
2022-08-11T08:21:47.123Z,27.60
2022-08-11T08:24:15.178Z,30.40
2022-08-11T08:26:59.024Z,30.60
2022-08-11T08:29:51.286Z,28.20
2022-08-11T08:32:19.535Z,28.30
2022-08-11T08:34:47.707Z,28.70
2022-08-11T08:40:02.790Z,30.90
2022-08-11T08:42:32.960Z,30.50
2022-08-11T08:45:07.220Z,30.60
2022-08-11T08:47:42.998Z,31.90
2022-08-11T08:50:19.425Z,31.00
2022-08-11T08:52:54.319Z,31.20
2022-08-11T08:55:21.350Z,31.20
2022-08-11T08:57:50.497Z,30.80
2022-08-11T09:00:23.174Z,30.20
2022-08-11T09:02:51.374Z,31.20
2022-08-11T09:05:19.308Z,31.40
2022-08-11T09:07:51.037Z,30.40
2022-08-11T09:10:20.263Z,31.90
2022-08-11T09:15:19.922Z,30.90
2022-08-11T09:17:51.613Z,33.70
2022-08-11T09:20:26.442Z,31.10
2022-08-11T09:26:21.437Z,33.80
2022-08-11T09:28:49.990Z,33.20
2022-08-11T09:31:17.420Z,33.70
2022-08-11T09:33:45.867Z,31.90
2022-08-11T09:36:31.954Z,32.80
2022-08-11T09:39:21.344Z,34.60
2022-08-11T09:42:00.945Z,33.20
2022-08-11T09:44:48.522Z,33.50
2022-08-11T09:47:25.067Z,34.70
2022-08-11T09:49:56.197Z,35.00
2022-08-11T09:52:24.661Z,33.80
2022-08-11T09:54:52.408Z,35.00
2022-08-11T09:57:39.195Z,32.90
2022-08-11T10:00:13.069Z,33.40
2022-08-11T10:02:47.053Z,32.80
2022-08-11T10:05:36.306Z,35.20
2022-08-11T10:08:05.105Z,33.70
2022-08-11T10:10:35.991Z,34.80
2022-08-11T10:14:30.572Z,34.50
2022-08-11T10:15:59.725Z,33.00
2022-08-11T10:18:42.906Z,35.40
2022-08-11T10:21:14.298Z,32.80
2022-08-11T10:24:05.896Z,33.40
2022-08-11T10:26:53.602Z,35.30
2022-08-11T10:29:45.329Z,35.30
2022-08-11T10:32:49.383Z,34.10
2022-08-11T10:35:26.158Z,33.20
2022-08-11T10:38:07.544Z,35.10
2022-08-11T10:40:39.957Z,33.50
2022-08-11T10:43:13.567Z,34.70
2022-08-11T10:46:04.027Z,33.80
2022-08-11T10:48:35.896Z,33.30
2022-08-11T10:51:13.586Z,33.20
2022-08-11T10:54:02.981Z,34.80
2022-08-11T10:56:52.134Z,33.10
2022-08-11T10:59:19.140Z,35.50
2022-08-11T11:01:46.585Z,34.40
2022-08-11T11:04:16.557Z,34.60
2022-08-11T11:07:04.467Z,35.50
2022-08-11T11:09:37.404Z,33.10
2022-08-11T11:12:53.600Z,34.20
2022-08-11T11:15:40.641Z,35.30
2022-08-11T11:18:16.255Z,33.10
2022-08-11T11:20:47.846Z,34.10
2022-08-11T11:23:22.927Z,34.70
2022-08-11T11:26:06.657Z,32.90
2022-08-11T11:28:57.920Z,35.10
2022-08-11T11:32:02.388Z,35.10
2022-08-11T11:35:06.821Z,35.00
2022-08-11T11:37:35.535Z,35.10
2022-08-11T11:40:10.309Z,34.90
2022-08-11T11:42:40.209Z,34.00
2022-08-11T11:45:09.394Z,34.90
2022-08-11T11:47:44.499Z,35.70
2022-08-11T11:50:12.854Z,35.00
2022-08-11T11:52:41.065Z,35.50
2022-08-11T11:55:08.946Z,34.50
2022-08-11T11:57:58.565Z,34.60
2022-08-11T12:00:45.066Z,34.60
2022-08-11T12:03:13.127Z,34.60
2022-08-11T12:05:43.432Z,34.80
2022-08-11T12:08:16.135Z,34.00
2022-08-11T12:11:13.261Z,36.40
2022-08-11T12:13:42.261Z,35.20
2022-08-11T12:16:34.371Z,35.30
2022-08-11T12:19:02.611Z,34.00
2022-08-11T12:21:30.345Z,36.50
2022-08-11T12:24:19.407Z,34.50
2022-08-11T12:27:14.722Z,34.20
2022-08-11T12:29:43.684Z,35.60
2022-08-11T12:32:11.418Z,35.90
2022-08-11T12:34:38.364Z,35.60
2022-08-11T12:37:10.743Z,33.80
2022-08-11T12:40:17.262Z,35.90
2022-08-11T12:43:20.689Z,34.50
2022-08-11T12:45:58.361Z,34.50
2022-08-11T12:49:00.730Z,36.40
2022-08-11T12:52:12.173Z,35.00
2022-08-11T12:54:52.030Z,35.50
2022-08-11T12:57:45.661Z,34.10
2022-08-11T13:00:32.981Z,35.10
2022-08-11T13:03:18.952Z,33.60
2022-08-11T13:05:47.391Z,35.50
2022-08-11T13:08:15.509Z,35.90
2022-08-11T13:11:02.107Z,36.50
2022-08-11T13:13:52.587Z,34.10
2022-08-11T13:16:17.788Z,36.80
2022-08-11T13:18:45.016Z,35.40
2022-08-11T13:21:20.553Z,34.30
2022-08-11T13:24:00.664Z,35.90
2022-08-11T13:26:48.722Z,34.90
2022-08-11T13:29:23.136Z,35.60
2022-08-11T13:31:52.043Z,34.60
2022-08-11T13:34:20.330Z,36.70
2022-08-11T13:36:49.114Z,36.00
2022-08-11T13:39:16.506Z,36.30
2022-08-11T13:41:45.120Z,36.20
2022-08-11T13:44:18.164Z,35.80
2022-08-11T13:46:48.743Z,36.70
2022-08-11T13:49:21.706Z,35.60
2022-08-11T13:51:49.204Z,34.50
2022-08-11T13:54:19.598Z,36.30
2022-08-11T13:56:49.538Z,35.40
2022-08-11T13:59:29.959Z,36.30
2022-08-11T14:02:28.670Z,36.10
2022-08-11T14:05:08.016Z,34.70
2022-08-11T14:07:41.916Z,35.20
2022-08-11T14:10:11.161Z,35.50
2022-08-11T14:12:58.753Z,34.00
2022-08-11T14:15:32.936Z,34.90
2022-08-11T14:18:19.056Z,35.40
2022-08-11T14:21:16.999Z,36.20
2022-08-11T14:23:47.412Z,35.30
2022-08-11T14:26:29.185Z,34.20
2022-08-11T14:29:17.721Z,35.30
2022-08-11T14:31:50.923Z,36.30
2022-08-11T14:34:21.500Z,34.00
2022-08-11T14:36:54.185Z,35.00
2022-08-11T14:39:29.257Z,34.80
2022-08-11T14:42:20.616Z,35.90
2022-08-11T14:45:08.666Z,33.90
2022-08-11T14:47:37.591Z,35.00
2022-08-11T14:50:11.605Z,35.70
2022-08-11T14:52:49.861Z,34.40
2022-08-11T14:55:37.068Z,35.60
2022-08-11T14:58:05.054Z,35.30
2022-08-11T15:00:34.315Z,33.80
2022-08-11T15:03:12.652Z,35.10
2022-08-11T15:05:56.092Z,34.40
2022-08-11T15:08:52.483Z,34.90
2022-08-11T15:11:40.995Z,33.10
2022-08-11T15:14:09.647Z,34.90
2022-08-11T15:16:58.141Z,34.10
2022-08-11T15:19:25.873Z,34.80
2022-08-11T15:24:38.652Z,34.00
2022-08-11T15:27:29.950Z,34.90
2022-08-11T15:30:32.229Z,32.80
2022-08-11T15:33:26.510Z,33.50
2022-08-11T15:36:14.396Z,33.50
2022-08-11T15:38:47.253Z,35.10
2022-08-11T15:41:36.273Z,33.80
2022-08-11T15:44:51.493Z,34.50
2022-08-11T15:47:17.022Z,32.40
2022-08-11T15:50:11.095Z,34.40
2022-08-11T15:52:38.790Z,32.40
2022-08-11T15:55:08.857Z,34.10
2022-08-11T15:57:55.941Z,32.10
2022-08-11T16:00:41.498Z,33.10
2022-08-11T16:04:06.030Z,31.70
2022-08-11T16:06:16.246Z,33.10
2022-08-11T16:08:45.584Z,32.80
2022-08-11T16:11:13.747Z,32.00
2022-08-11T16:13:40.886Z,33.40
2022-08-11T16:16:14.634Z,32.80
2022-08-11T16:18:52.123Z,32.90
2022-08-11T16:21:35.257Z,34.10
2022-08-11T16:24:09.497Z,32.00
2022-08-11T16:27:10.235Z,32.70
2022-08-11T16:29:43.655Z,32.20
2022-08-11T16:32:18.280Z,31.70
2022-08-11T16:35:07.839Z,32.10
2022-08-11T16:37:55.157Z,31.50
2022-08-11T16:40:22.899Z,31.50
2022-08-11T16:43:11.009Z,32.20
2022-08-11T16:45:58.840Z,33.40
2022-08-11T16:48:35.856Z,32.70
2022-08-11T16:51:10.684Z,31.50
2022-08-11T16:54:00.131Z,31.30
2022-08-11T16:56:49.121Z,32.90
2022-08-11T16:59:21.089Z,30.70
2022-08-11T17:01:53.591Z,30.80
2022-08-11T17:05:04.252Z,30.80
2022-08-11T17:10:57.656Z,31.60
2022-08-11T17:13:36.864Z,32.20
2022-08-11T17:16:09.236Z,32.90
2022-08-11T17:19:05.325Z,32.70
2022-08-11T17:21:57.375Z,31.50
2022-08-11T17:24:27.599Z,31.40
2022-08-11T17:26:59.163Z,30.60
2022-08-11T17:29:53.616Z,31.30
2022-08-11T17:32:56.830Z,32.60
2022-08-11T17:35:39.246Z,30.90
2022-08-11T17:38:22.717Z,30.30
2022-08-11T17:41:23.460Z,31.40
2022-08-11T17:44:11.030Z,30.20
2022-08-11T17:47:01.171Z,32.00
2022-08-11T17:52:26.392Z,30.40
2022-08-11T17:55:13.743Z,30.30
2022-08-11T17:58:00.374Z,30.50
2022-08-11T18:00:27.702Z,30.80
2022-08-11T18:03:14.541Z,30.60
2022-08-11T18:05:45.825Z,31.30
2022-08-11T18:08:35.262Z,32.30
2022-08-11T18:12:10.721Z,31.90
2022-08-11T18:14:35.490Z,30.70
2022-08-11T18:17:27.327Z,30.20
2022-08-11T18:23:01.806Z,31.10
2022-08-11T18:25:52.812Z,29.60
2022-08-11T18:28:45.098Z,29.80
2022-08-11T18:31:34.113Z,30.00
2022-08-11T18:34:25.084Z,31.60
2022-08-11T18:37:33.653Z,30.20
2022-08-11T18:40:29.871Z,30.10
2022-08-11T18:43:18.770Z,30.10
2022-08-11T18:46:07.893Z,29.40
2022-08-11T18:49:00.153Z,29.90
2022-08-11T18:51:46.573Z,30.10
2022-08-11T18:54:34.065Z,30.90
2022-08-11T18:57:25.011Z,29.20
2022-08-11T19:00:13.087Z,29.80
2022-08-11T19:02:59.166Z,29.70
2022-08-11T19:06:35.810Z,29.30
2022-08-11T19:08:58.576Z,29.50
2022-08-11T19:11:45.481Z,30.10
2022-08-11T19:14:32.176Z,29.10
2022-08-11T19:17:44.141Z,30.30
2022-08-11T19:20:31.639Z,29.80
2022-08-11T19:23:18.674Z,28.80
2022-08-11T19:26:05.163Z,27.70
2022-08-11T19:31:43.796Z,27.60
2022-08-11T19:34:34.936Z,28.20
2022-08-11T19:37:24.630Z,28.10
2022-08-11T19:40:18.425Z,28.40
2022-08-11T19:43:18.640Z,28.30
2022-08-11T19:46:13.356Z,27.10
2022-08-11T19:49:00.371Z,28.50
2022-08-11T19:51:47.892Z,27.00
2022-08-11T19:54:42.770Z,27.20
2022-08-11T19:57:38.703Z,28.00
2022-08-11T20:00:30.559Z,27.80
2022-08-11T20:03:18.131Z,28.70
2022-08-11T20:06:05.518Z,29.00
2022-08-11T20:08:56.394Z,27.30
2022-08-11T20:11:45.926Z,27.60
2022-08-11T20:14:32.660Z,27.20
2022-08-11T20:17:19.147Z,27.00
2022-08-11T20:20:06.233Z,27.30
2022-08-11T20:22:53.145Z,27.20
2022-08-11T20:25:40.870Z,27.40
2022-08-11T20:28:27.614Z,27.90
2022-08-11T20:31:14.154Z,26.20
2022-08-11T20:34:01.495Z,25.90
2022-08-11T20:36:54.545Z,26.80
2022-08-11T20:39:41.438Z,26.90
2022-08-11T20:42:30.434Z,27.00
2022-08-11T20:45:23.501Z,25.90
2022-08-11T20:48:14.922Z,26.50
2022-08-11T20:51:07.188Z,26.50
2022-08-11T20:53:57.237Z,25.30
2022-08-11T20:56:45.573Z,26.30
2022-08-11T20:59:33.324Z,26.60
2022-08-11T21:02:36.096Z,26.00
2022-08-11T21:08:28.776Z,26.10
2022-08-11T21:11:14.908Z,25.90
2022-08-11T21:14:13.944Z,24.90
2022-08-11T21:17:04.448Z,25.40
2022-08-11T21:20:16.956Z,25.70
2022-08-11T21:23:18.495Z,26.50
2022-08-11T21:26:42.601Z,24.60
2022-08-11T21:29:28.984Z,26.80
2022-08-11T21:32:16.246Z,24.40
2022-08-11T21:35:01.622Z,26.40
2022-08-11T21:37:50.335Z,25.50
2022-08-11T21:40:39.530Z,24.40
2022-08-11T21:43:26.205Z,25.40
2022-08-11T21:46:12.480Z,24.10
2022-08-11T21:48:58.922Z,24.80
2022-08-11T21:51:44.503Z,24.10
2022-08-11T21:54:30.444Z,24.50
2022-08-11T21:57:17.937Z,25.10
2022-08-11T22:00:18.499Z,25.70
2022-08-11T22:03:05.350Z,26.10
2022-08-11T22:05:52.962Z,26.40
2022-08-11T22:08:39.660Z,24.00
2022-08-11T22:11:32.388Z,25.00
2022-08-11T22:14:22.324Z,23.70
2022-08-11T22:17:08.337Z,24.10
2022-08-11T22:19:55.794Z,24.40
2022-08-11T22:22:52.087Z,23.70
2022-08-11T22:25:39.090Z,23.50
2022-08-11T22:28:32.337Z,24.20
2022-08-11T22:31:19.439Z,23.80
2022-08-11T22:34:04.814Z,23.70
2022-08-11T22:36:51.816Z,23.30
2022-08-11T22:39:37.869Z,25.60
2022-08-11T22:42:33.155Z,24.90
2022-08-11T22:45:19.910Z,23.80
2022-08-11T22:48:07.870Z,23.20
2022-08-11T22:50:55.808Z,23.90
2022-08-11T22:53:57.367Z,24.30
2022-08-11T22:56:46.414Z,24.20
2022-08-11T23:02:17.876Z,23.60
2022-08-11T23:05:03.768Z,23.00
2022-08-11T23:07:51.959Z,23.00
2022-08-11T23:10:39.802Z,25.30
2022-08-11T23:13:27.088Z,24.10
2022-08-11T23:16:16.541Z,22.90
2022-08-11T23:19:02.238Z,23.00
2022-08-11T23:21:49.526Z,23.10
2022-08-11T23:24:35.901Z,23.00
2022-08-11T23:27:22.914Z,24.90
2022-08-11T23:30:11.019Z,24.50
2022-08-11T23:32:57.560Z,22.80
2022-08-11T23:35:54.860Z,22.80
2022-08-11T23:38:43.607Z,25.40
2022-08-11T23:41:32.059Z,22.80
2022-08-11T23:44:19.731Z,23.90
2022-08-11T23:47:07.222Z,24.40
2022-08-11T23:49:55.173Z,24.00
2022-08-11T23:52:41.189Z,24.30
2022-08-11T23:58:12.916Z,23.60
